createdAt,value
2023-12-31T00:02:03.332Z,5.34
2023-12-31T00:04:31.480Z,5.35
2023-12-31T00:06:59.654Z,5.36
2023-12-31T00:09:27.825Z,5.37
2023-12-31T00:11:55.980Z,5.36
2023-12-31T00:14:24.367Z,5.34
2023-12-31T00:16:51.780Z,5.31
2023-12-31T00:19:20.072Z,5.28
2023-12-31T00:21:48.515Z,5.22
2023-12-31T00:24:16.708Z,5.18
2023-12-31T00:26:44.849Z,5.16
2023-12-31T00:29:13.530Z,5.15
2023-12-31T00:31:41.784Z,5.15
2023-12-31T00:34:11.042Z,5.15
2023-12-31T00:36:39.694Z,5.16
2023-12-31T00:39:07.914Z,5.16
2023-12-31T00:41:36.066Z,5.15
2023-12-31T00:44:04.551Z,5.14
2023-12-31T00:46:32.042Z,5.11
2023-12-31T00:49:00.362Z,5.09
2023-12-31T00:51:28.609Z,5.07
2023-12-31T00:53:57.085Z,5.05
2023-12-31T00:56:24.402Z,5.01
2023-12-31T00:58:52.604Z,4.95
2023-12-31T01:01:21.032Z,4.92
2023-12-31T01:03:49.502Z,4.86
2023-12-31T01:06:17.745Z,4.80
2023-12-31T01:08:46.423Z,4.76
2023-12-31T01:11:14.762Z,4.72
2023-12-31T01:13:43.083Z,4.69
2023-12-31T01:16:11.426Z,4.63
2023-12-31T01:18:39.994Z,4.53
2023-12-31T01:21:07.424Z,4.43
2023-12-31T01:23:35.570Z,4.33
2023-12-31T01:26:05.021Z,4.25
2023-12-31T01:28:33.200Z,4.15
2023-12-31T01:31:01.568Z,4.14
2023-12-31T01:33:30.220Z,4.14
2023-12-31T01:35:58.954Z,4.14
2023-12-31T01:38:27.209Z,4.15
2023-12-31T01:40:56.462Z,4.14
2023-12-31T01:43:24.768Z,4.15
2023-12-31T01:45:53.084Z,4.17
2023-12-31T01:48:21.296Z,4.19
2023-12-31T01:50:49.471Z,4.21
2023-12-31T01:53:17.228Z,4.24
2023-12-31T01:55:45.550Z,4.22
2023-12-31T01:58:14.963Z,4.19
2023-12-31T02:00:43.745Z,4.18
2023-12-31T02:03:11.331Z,4.18
2023-12-31T02:05:40.020Z,4.20
2023-12-31T02:08:07.455Z,4.25
2023-12-31T02:10:35.726Z,4.26
2023-12-31T02:13:04.729Z,4.29
2023-12-31T02:15:33.953Z,4.31
2023-12-31T02:18:03.430Z,4.35
2023-12-31T02:20:32.268Z,4.37
2023-12-31T02:23:01.116Z,4.32
2023-12-31T02:25:30.609Z,4.27
2023-12-31T02:27:58.908Z,4.24
2023-12-31T02:30:27.391Z,4.21
2023-12-31T02:32:54.853Z,4.19
2023-12-31T02:35:23.065Z,4.16
2023-12-31T02:37:51.343Z,4.13
2023-12-31T02:40:19.578Z,4.09
2023-12-31T02:42:48.031Z,4.10
2023-12-31T02:45:16.577Z,4.09
2023-12-31T02:47:43.997Z,4.06
2023-12-31T02:50:12.311Z,4.03
2023-12-31T02:52:40.550Z,4.01
2023-12-31T02:55:09.121Z,3.95
2023-12-31T02:57:37.643Z,3.91
2023-12-31T03:00:08.894Z,3.86
2023-12-31T03:02:37.478Z,3.84
2023-12-31T03:05:05.579Z,3.84
2023-12-31T03:07:33.845Z,3.83
2023-12-31T03:10:02.278Z,3.82
2023-12-31T03:12:30.419Z,3.80
2023-12-31T03:14:59.239Z,3.75
2023-12-31T03:17:27.493Z,3.70
2023-12-31T03:19:55.734Z,3.61
2023-12-31T03:22:33.654Z,3.50
2023-12-31T03:25:10.851Z,3.45
2023-12-31T03:27:39.116Z,3.39
2023-12-31T03:30:09.183Z,3.35
2023-12-31T03:32:38.769Z,3.35
2023-12-31T03:35:08.090Z,3.35
2023-12-31T03:37:36.559Z,3.37
2023-12-31T03:40:04.869Z,3.39
2023-12-31T03:42:33.009Z,3.40
2023-12-31T03:45:01.384Z,3.42
2023-12-31T03:47:29.875Z,3.44
2023-12-31T03:49:58.132Z,3.44
2023-12-31T03:52:26.376Z,3.45
2023-12-31T03:54:54.728Z,3.42
2023-12-31T03:57:22.937Z,3.41
2023-12-31T03:59:51.100Z,3.39
2023-12-31T04:02:19.400Z,3.40
2023-12-31T04:04:47.738Z,3.38
2023-12-31T04:07:15.972Z,3.40
2023-12-31T04:09:44.524Z,3.42
2023-12-31T04:12:11.918Z,3.44
2023-12-31T04:14:40.081Z,3.44
2023-12-31T04:17:08.342Z,3.44
2023-12-31T04:19:36.861Z,3.45
2023-12-31T04:22:05.464Z,3.47
2023-12-31T04:24:32.894Z,3.48
2023-12-31T04:27:01.046Z,3.49
2023-12-31T04:29:29.199Z,3.50
2023-12-31T04:31:57.551Z,3.51
2023-12-31T04:34:26.027Z,3.48
2023-12-31T04:36:54.220Z,3.44
2023-12-31T04:39:22.446Z,3.43
2023-12-31T04:41:50.694Z,3.43
2023-12-31T04:44:19.010Z,3.45
2023-12-31T04:46:47.272Z,3.48
2023-12-31T04:49:16.288Z,3.50
2023-12-31T04:51:44.697Z,3.51
2023-12-31T04:54:13.667Z,3.54
2023-12-31T04:56:41.805Z,3.54
2023-12-31T04:59:11.188Z,3.52
2023-12-31T05:01:39.381Z,3.41
2023-12-31T05:04:07.600Z,3.29
2023-12-31T05:06:35.799Z,3.21
2023-12-31T05:09:04.340Z,3.17
2023-12-31T05:11:32.450Z,3.13
2023-12-31T05:14:00.704Z,3.11
2023-12-31T05:16:32.313Z,3.08
2023-12-31T05:19:01.478Z,3.06
2023-12-31T05:21:29.807Z,3.05
2023-12-31T05:23:57.979Z,3.04
2023-12-31T05:26:26.153Z,3.02
2023-12-31T05:28:54.358Z,3.01
2023-12-31T05:31:22.626Z,2.98
2023-12-31T05:33:50.894Z,2.94
2023-12-31T05:36:19.053Z,2.87
2023-12-31T05:38:47.423Z,2.79
2023-12-31T05:41:15.683Z,2.72
2023-12-31T05:43:44.287Z,2.65
2023-12-31T05:46:11.763Z,2.58
2023-12-31T05:48:40.306Z,2.52
2023-12-31T05:51:07.834Z,2.49
2023-12-31T05:53:35.994Z,2.45
2023-12-31T05:56:04.885Z,2.36
2023-12-31T05:58:33.100Z,2.33
2023-12-31T06:01:02.629Z,2.26
2023-12-31T06:03:30.997Z,2.19
2023-12-31T06:05:59.196Z,2.13
2023-12-31T06:08:27.477Z,2.07
2023-12-31T06:10:56.354Z,2.00
2023-12-31T06:13:24.560Z,1.93
2023-12-31T06:15:52.949Z,1.88
2023-12-31T06:18:21.131Z,1.85
2023-12-31T06:20:49.549Z,1.80
2023-12-31T06:23:17.760Z,1.76
2023-12-31T06:25:46.981Z,1.71
2023-12-31T06:28:15.313Z,1.64
2023-12-31T06:30:43.623Z,1.58
2023-12-31T06:33:11.963Z,1.53
2023-12-31T06:35:40.414Z,1.49
2023-12-31T06:38:08.574Z,1.46
2023-12-31T06:40:36.803Z,1.42
2023-12-31T06:43:05.521Z,1.37
2023-12-31T06:45:36.904Z,1.34
2023-12-31T06:48:07.735Z,1.32
2023-12-31T06:50:36.173Z,1.32
2023-12-31T06:53:05.070Z,1.31
2023-12-31T06:55:33.588Z,1.29
2023-12-31T06:58:01.811Z,1.27
2023-12-31T07:00:30.009Z,1.22
2023-12-31T07:02:58.226Z,1.17
2023-12-31T07:05:26.572Z,1.12
2023-12-31T07:07:54.868Z,1.09
2023-12-31T07:10:23.194Z,1.04
2023-12-31T07:12:53.074Z,1.00
2023-12-31T07:15:22.206Z,0.96
2023-12-31T07:17:50.618Z,0.96
2023-12-31T07:20:19.098Z,0.99
2023-12-31T07:22:47.358Z,0.99
2023-12-31T07:25:16.097Z,0.95
2023-12-31T07:27:44.366Z,0.96
2023-12-31T07:30:13.302Z,1.01
2023-12-31T07:32:41.546Z,1.05
2023-12-31T07:35:10.049Z,1.11
2023-12-31T07:37:39.279Z,1.17
2023-12-31T07:40:09.911Z,1.20
2023-12-31T07:42:38.429Z,1.20
2023-12-31T07:45:08.914Z,1.18
2023-12-31T07:47:39.226Z,1.20
2023-12-31T07:50:08.305Z,1.21
2023-12-31T07:52:36.670Z,1.22
2023-12-31T07:55:09.233Z,1.25
2023-12-31T07:57:37.721Z,1.28
2023-12-31T08:00:07.933Z,1.33
2023-12-31T08:02:42.015Z,1.38
2023-12-31T08:05:11.630Z,1.44
2023-12-31T08:07:39.964Z,1.52
2023-12-31T08:10:08.854Z,1.59
2023-12-31T08:12:36.975Z,1.67
2023-12-31T08:15:06.998Z,1.74
2023-12-31T08:17:35.319Z,1.81
2023-12-31T08:20:05.020Z,1.87
2023-12-31T08:22:33.214Z,1.92
2023-12-31T08:25:01.786Z,1.97
2023-12-31T08:27:29.963Z,2.03
2023-12-31T08:29:58.341Z,2.09
2023-12-31T08:32:29.330Z,2.15
2023-12-31T08:34:57.606Z,2.22
2023-12-31T08:37:25.850Z,2.29
2023-12-31T08:39:54.065Z,2.37
2023-12-31T08:42:22.189Z,2.43
2023-12-31T08:45:01.579Z,2.50
2023-12-31T08:47:34.398Z,2.57
2023-12-31T08:50:08.389Z,2.64
2023-12-31T08:52:39.150Z,2.70
2023-12-31T08:55:08.582Z,2.76
2023-12-31T08:57:36.766Z,2.83
2023-12-31T09:00:07.485Z,2.88
2023-12-31T09:02:35.653Z,2.93
2023-12-31T09:05:05.156Z,2.99
2023-12-31T09:07:35.468Z,3.06
2023-12-31T09:10:04.272Z,3.12
2023-12-31T09:12:32.560Z,3.21
2023-12-31T09:15:00.968Z,3.29
2023-12-31T09:17:29.313Z,3.34
2023-12-31T09:19:57.703Z,3.40
2023-12-31T09:22:26.844Z,3.46
2023-12-31T09:24:55.115Z,3.51
2023-12-31T09:27:23.281Z,3.57
2023-12-31T09:29:51.513Z,3.63
2023-12-31T09:32:19.868Z,3.67
2023-12-31T09:34:48.103Z,3.71
2023-12-31T09:37:19.685Z,3.72
2023-12-31T09:39:48.343Z,3.74
2023-12-31T09:42:16.200Z,3.75
2023-12-31T09:44:44.463Z,3.76
2023-12-31T09:47:13.648Z,3.78
2023-12-31T09:49:42.791Z,3.82
2023-12-31T09:52:11.286Z,3.88
2023-12-31T09:54:41.403Z,3.90
2023-12-31T09:57:13.144Z,3.92
2023-12-31T09:59:47.232Z,3.93
2023-12-31T10:02:21.187Z,3.93
2023-12-31T10:04:51.609Z,3.94
2023-12-31T10:07:20.747Z,3.94
2023-12-31T10:09:50.804Z,3.96
2023-12-31T10:12:19.039Z,4.01
2023-12-31T10:14:48.482Z,4.01
2023-12-31T10:17:16.756Z,4.06
2023-12-31T10:19:46.510Z,4.13
2023-12-31T10:22:14.842Z,4.18
2023-12-31T10:24:43.024Z,4.21
2023-12-31T10:27:13.028Z,4.26
2023-12-31T10:29:41.259Z,4.32
2023-12-31T10:32:09.441Z,4.34
2023-12-31T10:34:37.678Z,4.38
2023-12-31T10:37:08.247Z,4.44
2023-12-31T10:39:37.086Z,4.48
2023-12-31T10:42:06.842Z,4.51
2023-12-31T10:44:36.735Z,4.54
2023-12-31T10:47:06.328Z,4.60
2023-12-31T10:49:35.399Z,4.65
2023-12-31T10:52:05.432Z,4.66
2023-12-31T10:54:46.595Z,4.64
2023-12-31T10:57:17.208Z,4.66
2023-12-31T10:59:45.539Z,4.69
2023-12-31T11:02:16.029Z,4.69
2023-12-31T11:04:45.539Z,4.69
2023-12-31T11:07:15.283Z,4.71
2023-12-31T11:09:43.985Z,4.75
2023-12-31T11:12:12.437Z,4.74
2023-12-31T11:14:43.312Z,4.72
2023-12-31T11:17:31.595Z,4.72
2023-12-31T11:20:42.792Z,4.75
2023-12-31T11:23:19.641Z,4.77
2023-12-31T11:25:47.974Z,4.79
2023-12-31T11:28:17.305Z,4.80
2023-12-31T11:30:46.591Z,4.81
2023-12-31T11:33:17.619Z,4.81
2023-12-31T11:35:47.027Z,4.80
2023-12-31T11:38:15.919Z,4.79
2023-12-31T11:40:44.473Z,4.79
2023-12-31T11:43:14.044Z,4.80
2023-12-31T11:45:43.182Z,4.80
2023-12-31T11:48:25.751Z,4.82
2023-12-31T11:50:54.976Z,4.85
2023-12-31T11:53:23.394Z,4.86
2023-12-31T11:55:54.699Z,4.89
2023-12-31T11:58:23.155Z,4.91
2023-12-31T12:00:51.389Z,4.94
2023-12-31T12:03:20.160Z,4.95
2023-12-31T12:05:50.554Z,4.98
2023-12-31T12:08:18.927Z,4.98
2023-12-31T12:10:47.341Z,4.99
2023-12-31T12:13:15.056Z,4.99
2023-12-31T12:15:43.298Z,5.00
2023-12-31T12:18:16.560Z,4.99
2023-12-31T12:20:44.905Z,4.97
2023-12-31T12:23:13.886Z,4.97
2023-12-31T12:25:43.326Z,4.97
2023-12-31T12:28:11.660Z,4.95
2023-12-31T12:30:41.538Z,4.98
2023-12-31T12:33:13.725Z,4.99
2023-12-31T12:35:44.185Z,4.98
2023-12-31T12:38:13.431Z,4.97
2023-12-31T12:40:42.313Z,4.97
2023-12-31T12:43:14.124Z,4.97
2023-12-31T12:45:42.795Z,4.97
2023-12-31T12:48:11.078Z,4.98
2023-12-31T12:50:39.368Z,4.98
2023-12-31T12:53:07.852Z,4.99
2023-12-31T12:55:36.260Z,5.00
2023-12-31T12:58:05.269Z,5.02
2023-12-31T13:00:33.449Z,5.03
2023-12-31T13:03:01.829Z,5.04
2023-12-31T13:05:29.656Z,5.05
2023-12-31T13:07:58.304Z,5.05
2023-12-31T13:10:26.541Z,5.07
2023-12-31T13:12:54.834Z,5.09
2023-12-31T13:15:25.089Z,5.13
2023-12-31T13:18:02.379Z,5.18
2023-12-31T13:20:30.793Z,5.21
2023-12-31T13:22:59.480Z,5.22
2023-12-31T13:25:29.312Z,5.22
2023-12-31T13:27:58.368Z,5.22
2023-12-31T13:30:26.809Z,5.16
2023-12-31T13:32:54.197Z,5.14
2023-12-31T13:35:22.447Z,5.09
2023-12-31T13:37:50.797Z,5.05
2023-12-31T13:40:19.058Z,5.02
2023-12-31T13:42:47.506Z,4.99
2023-12-31T13:45:16.001Z,4.96
2023-12-31T13:47:44.218Z,4.90
2023-12-31T13:50:13.053Z,4.85
2023-12-31T13:52:41.398Z,4.82
2023-12-31T13:55:10.173Z,4.79
2023-12-31T13:57:38.380Z,4.76
2023-12-31T14:00:12.587Z,4.72
2023-12-31T14:02:49.702Z,4.67
2023-12-31T14:05:22.014Z,4.62
2023-12-31T14:07:50.504Z,4.55
2023-12-31T14:10:18.672Z,4.49
2023-12-31T14:12:46.954Z,4.46
2023-12-31T14:15:16.404Z,4.43
2023-12-31T14:17:44.623Z,4.40
2023-12-31T14:20:13.497Z,4.38
2023-12-31T14:22:42.374Z,4.37
2023-12-31T14:25:10.580Z,4.35
2023-12-31T14:27:38.791Z,4.35
2023-12-31T14:30:09.604Z,4.35
2023-12-31T14:32:38.294Z,4.33
2023-12-31T14:35:08.109Z,4.29
2023-12-31T14:37:36.446Z,4.24
2023-12-31T14:40:06.910Z,4.18
2023-12-31T14:42:35.216Z,4.11
2023-12-31T14:45:03.894Z,4.10
2023-12-31T14:47:32.251Z,4.08
2023-12-31T14:50:00.955Z,4.07
2023-12-31T14:52:29.281Z,4.07
2023-12-31T14:55:02.952Z,4.05
2023-12-31T14:57:31.241Z,4.05
2023-12-31T14:59:59.410Z,4.04
2023-12-31T15:02:27.721Z,4.01
2023-12-31T15:05:03.769Z,3.96
2023-12-31T15:07:40.008Z,3.90
2023-12-31T15:10:09.253Z,3.83
2023-12-31T15:12:37.472Z,3.75
2023-12-31T15:15:06.682Z,3.66
2023-12-31T15:17:35.078Z,3.58
2023-12-31T15:20:04.027Z,3.49
2023-12-31T15:22:32.509Z,3.40
2023-12-31T15:25:00.860Z,3.31
2023-12-31T15:27:31.083Z,3.23
2023-12-31T15:29:59.398Z,3.15
2023-12-31T15:32:28.073Z,3.07
2023-12-31T15:34:56.402Z,2.99
2023-12-31T15:37:24.972Z,2.93
2023-12-31T15:39:52.421Z,2.88
2023-12-31T15:42:20.587Z,2.84
2023-12-31T15:44:50.563Z,2.78
2023-12-31T15:47:19.582Z,2.74
2023-12-31T15:49:47.906Z,2.72
2023-12-31T15:52:16.393Z,2.72
2023-12-31T15:54:44.726Z,2.69
2023-12-31T15:57:12.862Z,2.69
2023-12-31T15:59:41.132Z,2.68
2023-12-31T16:02:14.216Z,2.68
2023-12-31T16:04:42.447Z,2.68
2023-12-31T16:07:10.713Z,2.67
2023-12-31T16:09:39.008Z,2.67
2023-12-31T16:12:09.010Z,2.67
2023-12-31T16:14:37.226Z,2.69
2023-12-31T16:17:05.777Z,2.68
2023-12-31T16:19:34.013Z,2.66
2023-12-31T16:22:02.225Z,2.64
2023-12-31T16:24:30.535Z,2.64
2023-12-31T16:29:26.146Z,2.68
2023-12-31T16:31:57.873Z,2.61
2023-12-31T16:34:30.821Z,2.58
2023-12-31T16:37:02.510Z,2.59
2023-12-31T16:39:34.245Z,2.63
2023-12-31T16:42:06.329Z,2.60
2023-12-31T16:44:37.902Z,2.53
2023-12-31T16:47:09.846Z,2.54
2023-12-31T16:49:41.603Z,2.50
2023-12-31T16:52:13.321Z,2.42
2023-12-31T16:54:45.501Z,2.39
2023-12-31T16:57:17.268Z,2.36
2023-12-31T16:59:48.825Z,2.32
2023-12-31T17:02:20.581Z,2.27
2023-12-31T17:04:52.296Z,2.25
2023-12-31T17:07:24.039Z,2.20
2023-12-31T17:09:55.642Z,2.12
2023-12-31T17:12:28.011Z,2.07
2023-12-31T17:14:59.692Z,2.03
2023-12-31T17:17:31.535Z,2.05
2023-12-31T17:20:03.477Z,2.03
2023-12-31T17:22:36.885Z,2.04
2023-12-31T17:25:10.419Z,2.01
2023-12-31T17:27:42.165Z,2.01
2023-12-31T17:30:15.128Z,2.08
2023-12-31T17:32:46.810Z,2.14
2023-12-31T17:35:18.938Z,2.20
2023-12-31T17:37:51.537Z,2.25
2023-12-31T17:40:23.283Z,2.30
2023-12-31T17:42:55.080Z,2.32
2023-12-31T17:45:27.485Z,2.42
